sensor_id;sensor_type;location;lat;lon;timestamp;temperature;humidity
28959;DHT22;16066;0.000;0.000;2023-08-31T05:31:14;17.50;59.10
28959;DHT22;16066;0.000;0.000;2023-08-31T05:33:40;17.60;59.30
28959;DHT22;16066;0.000;0.000;2023-08-31T05:36:06;17.60;59.20
28959;DHT22;16066;0.000;0.000;2023-08-31T05:38:31;17.60;59.10
28959;DHT22;16066;0.000;0.000;2023-08-31T05:41:05;17.60;59.10
28959;DHT22;16066;0.000;0.000;2023-08-31T05:43:32;17.50;59.20
28959;DHT22;16066;0.000;0.000;2023-08-31T05:45:57;17.50;59.30
28959;DHT22;16066;0.000;0.000;2023-08-31T05:48:23;17.50;59.20
28959;DHT22;16066;0.000;0.000;2023-08-31T05:50:48;17.50;59.20
28959;DHT22;16066;0.000;0.000;2023-08-31T05:53:14;17.50;59.20
28959;DHT22;16066;0.000;0.000;2023-08-31T05:55:39;17.50;59.30
28959;DHT22;16066;0.000;0.000;2023-08-31T05:58:05;17.50;59.40
28959;DHT22;16066;0.000;0.000;2023-08-31T06:00:31;17.50;59.40
28959;DHT22;16066;0.000;0.000;2023-08-31T06:02:56;17.50;59.40
28959;DHT22;16066;0.000;0.000;2023-08-31T06:05:22;17.50;59.50
28959;DHT22;16066;0.000;0.000;2023-08-31T06:07:47;17.40;59.50
28959;DHT22;16066;0.000;0.000;2023-08-31T06:10:13;17.40;59.50
28959;DHT22;16066;0.000;0.000;2023-08-31T06:12:40;17.40;59.50
28959;DHT22;16066;0.000;0.000;2023-08-31T06:15:06;17.50;59.60
28959;DHT22;16066;0.000;0.000;2023-08-31T06:17:32;17.50;59.50
28959;DHT22;16066;0.000;0.000;2023-08-31T06:19:57;17.50;59.40
28959;DHT22;16066;0.000;0.000;2023-08-31T06:22:23;17.50;59.50
28959;DHT22;16066;0.000;0.000;2023-08-31T06:24:50;17.50;59.60
28959;DHT22;16066;0.000;0.000;2023-08-31T06:27:17;17.50;59.50
28959;DHT22;16066;0.000;0.000;2023-08-31T06:29:43;17.40;59.60
28959;DHT22;16066;0.000;0.000;2023-08-31T06:32:08;17.40;59.60
28959;DHT22;16066;0.000;0.000;2023-08-31T06:34:34;17.40;59.70
28959;DHT22;16066;0.000;0.000;2023-08-31T06:37:00;17.40;59.60
28959;DHT22;16066;0.000;0.000;2023-08-31T06:39:26;17.40;59.70
28959;DHT22;16066;0.000;0.000;2023-08-31T06:41:51;17.30;59.60
28959;DHT22;16066;0.000;0.000;2023-08-31T06:44:16;17.40;59.70
28959;DHT22;16066;0.000;0.000;2023-08-31T06:46:42;17.40;59.50
28959;DHT22;16066;0.000;0.000;2023-08-31T06:49:08;17.30;59.50
28959;DHT22;16066;0.000;0.000;2023-08-31T06:51:34;17.30;59.50
28959;DHT22;16066;0.000;0.000;2023-08-31T06:54:00;17.30;59.50
28959;DHT22;16066;0.000;0.000;2023-08-31T06:56:30;17.30;59.60
28959;DHT22;16066;0.000;0.000;2023-08-31T06:58:55;17.30;59.80
28959;DHT22;16066;0.000;0.000;2023-08-31T07:01:21;17.30;59.80
28959;DHT22;16066;0.000;0.000;2023-08-31T07:03:46;17.30;60.00
28959;DHT22;16066;0.000;0.000;2023-08-31T07:06:12;17.20;59.80
28959;DHT22;16066;0.000;0.000;2023-08-31T07:08:37;17.20;59.70
28959;DHT22;16066;0.000;0.000;2023-08-31T07:11:06;17.20;59.80
28959;DHT22;16066;0.000;0.000;2023-08-31T07:13:31;17.30;60.00
28959;DHT22;16066;0.000;0.000;2023-08-31T07:15:57;17.20;59.80
28959;DHT22;16066;0.000;0.000;2023-08-31T07:18:23;17.20;59.90
28959;DHT22;16066;0.000;0.000;2023-08-31T07:20:48;17.30;60.20
28959;DHT22;16066;0.000;0.000;2023-08-31T07:23:14;17.30;60.20
28959;DHT22;16066;0.000;0.000;2023-08-31T07:25:39;17.30;60.00
28959;DHT22;16066;0.000;0.000;2023-08-31T07:28:05;17.20;60.00
28959;DHT22;16066;0.000;0.000;2023-08-31T07:30:30;17.30;60.20
28959;DHT22;16066;0.000;0.000;2023-08-31T07:32:58;17.20;60.00
28959;DHT22;16066;0.000;0.000;2023-08-31T07:35:28;17.20;60.40
28959;DHT22;16066;0.000;0.000;2023-08-31T07:37:53;17.20;60.60
28959;DHT22;16066;0.000;0.000;2023-08-31T07:40:19;17.30;60.50
28959;DHT22;16066;0.000;0.000;2023-08-31T07:42:44;17.30;60.30
28959;DHT22;16066;0.000;0.000;2023-08-31T07:45:10;17.30;60.20
28959;DHT22;16066;0.000;0.000;2023-08-31T07:47:35;17.30;60.00
28959;DHT22;16066;0.000;0.000;2023-08-31T07:50:01;17.30;60.00
28959;DHT22;16066;0.000;0.000;2023-08-31T07:52:27;17.30;60.10
28959;DHT22;16066;0.000;0.000;2023-08-31T07:54:53;17.30;60.40
28959;DHT22;16066;0.000;0.000;2023-08-31T07:57:19;17.30;60.40
28959;DHT22;16066;0.000;0.000;2023-08-31T07:59:45;17.30;60.30
28959;DHT22;16066;0.000;0.000;2023-08-31T08:02:10;17.40;60.00
28959;DHT22;16066;0.000;0.000;2023-08-31T08:04:36;17.40;60.20
28959;DHT22;16066;0.000;0.000;2023-08-31T08:07:01;17.50;60.00
28959;DHT22;16066;0.000;0.000;2023-08-31T08:09:28;17.50;59.90
28959;DHT22;16066;0.000;0.000;2023-08-31T08:11:55;17.50;59.80
28959;DHT22;16066;0.000;0.000;2023-08-31T08:14:21;17.50;59.70
28959;DHT22;16066;0.000;0.000;2023-08-31T08:16:46;17.60;59.70
28959;DHT22;16066;0.000;0.000;2023-08-31T08:19:12;17.60;59.50
28959;DHT22;16066;0.000;0.000;2023-08-31T08:21:37;17.70;59.60
28959;DHT22;16066;0.000;0.000;2023-08-31T08:24:03;17.70;59.50
28959;DHT22;16066;0.000;0.000;2023-08-31T08:26:29;17.70;59.60
28959;DHT22;16066;0.000;0.000;2023-08-31T08:28:54;17.70;59.70
28959;DHT22;16066;0.000;0.000;2023-08-31T08:31:20;17.70;59.70
28959;DHT22;16066;0.000;0.000;2023-08-31T08:33:45;17.80;59.30
28959;DHT22;16066;0.000;0.000;2023-08-31T08:36:11;17.80;59.10
28959;DHT22;16066;0.000;0.000;2023-08-31T08:38:36;17.80;58.80
28959;DHT22;16066;0.000;0.000;2023-08-31T08:41:05;17.80;58.50
28959;DHT22;16066;0.000;0.000;2023-08-31T08:43:35;17.90;58.70
28959;DHT22;16066;0.000;0.000;2023-08-31T08:46:05;17.90;58.70
28959;DHT22;16066;0.000;0.000;2023-08-31T08:48:33;18.00;58.90
28959;DHT22;16066;0.000;0.000;2023-08-31T08:50:59;18.00;58.70
28959;DHT22;16066;0.000;0.000;2023-08-31T08:53:25;18.10;58.40
28959;DHT22;16066;0.000;0.000;2023-08-31T08:55:51;18.10;58.30
28959;DHT22;16066;0.000;0.000;2023-08-31T08:58:16;18.10;58.30
28959;DHT22;16066;0.000;0.000;2023-08-31T09:00:42;18.10;58.20
28959;DHT22;16066;0.000;0.000;2023-08-31T09:03:08;18.10;58.20
28959;DHT22;16066;0.000;0.000;2023-08-31T09:05:34;18.10;58.10
28959;DHT22;16066;0.000;0.000;2023-08-31T09:08:09;18.20;58.10
28959;DHT22;16066;0.000;0.000;2023-08-31T09:10:45;18.20;58.10
28959;DHT22;16066;0.000;0.000;2023-08-31T09:13:14;18.20;58.20
28959;DHT22;16066;0.000;0.000;2023-08-31T09:15:48;18.30;58.40
28959;DHT22;16066;0.000;0.000;2023-08-31T09:18:15;18.30;58.50
28959;DHT22;16066;0.000;0.000;2023-08-31T09:20:47;18.30;58.60
28959;DHT22;16066;0.000;0.000;2023-08-31T09:23:16;18.40;58.60
28959;DHT22;16066;0.000;0.000;2023-08-31T09:25:47;18.40;58.40
28959;DHT22;16066;0.000;0.000;2023-08-31T09:28:15;18.40;57.90
28959;DHT22;16066;0.000;0.000;2023-08-31T09:30:42;18.40;57.50
28959;DHT22;16066;0.000;0.000;2023-08-31T09:33:09;18.40;57.30
28959;DHT22;16066;0.000;0.000;2023-08-31T09:35:42;18.50;57.30
28959;DHT22;16066;0.000;0.000;2023-08-31T09:38:11;18.50;57.30
28959;DHT22;16066;0.000;0.000;2023-08-31T09:40:37;18.50;57.50
28959;DHT22;16066;0.000;0.000;2023-08-31T09:43:03;18.60;57.20
28959;DHT22;16066;0.000;0.000;2023-08-31T09:45:30;18.70;56.90
28959;DHT22;16066;0.000;0.000;2023-08-31T09:47:59;18.70;56.60
28959;DHT22;16066;0.000;0.000;2023-08-31T09:50:29;18.80;56.60
28959;DHT22;16066;0.000;0.000;2023-08-31T09:52:55;18.90;56.60
28959;DHT22;16066;0.000;0.000;2023-08-31T09:55:25;18.90;56.50
28959;DHT22;16066;0.000;0.000;2023-08-31T09:57:52;19.00;56.20
28959;DHT22;16066;0.000;0.000;2023-08-31T10:00:21;19.00;54.90
28959;DHT22;16066;0.000;0.000;2023-08-31T10:02:47;19.00;55.00
28959;DHT22;16066;0.000;0.000;2023-08-31T10:05:13;19.00;55.00
28959;DHT22;16066;0.000;0.000;2023-08-31T10:07:40;19.00;54.50
28959;DHT22;16066;0.000;0.000;2023-08-31T10:10:06;19.00;54.40
28959;DHT22;16066;0.000;0.000;2023-08-31T10:12:32;19.10;54.10
28959;DHT22;16066;0.000;0.000;2023-08-31T10:15:00;19.10;53.60
28959;DHT22;16066;0.000;0.000;2023-08-31T10:17:26;19.10;53.80
28959;DHT22;16066;0.000;0.000;2023-08-31T10:19:52;19.10;53.30
28959;DHT22;16066;0.000;0.000;2023-08-31T10:22:19;19.20;53.30
28959;DHT22;16066;0.000;0.000;2023-08-31T10:24:58;19.20;52.90
28959;DHT22;16066;0.000;0.000;2023-08-31T10:27:24;19.20;52.50
28959;DHT22;16066;0.000;0.000;2023-08-31T10:29:50;19.20;52.40
28959;DHT22;16066;0.000;0.000;2023-08-31T10:32:19;19.20;52.40
28959;DHT22;16066;0.000;0.000;2023-08-31T10:35:04;19.20;52.40
28959;DHT22;16066;0.000;0.000;2023-08-31T10:37:29;19.20;52.70
28959;DHT22;16066;0.000;0.000;2023-08-31T10:40:09;19.30;52.80
28959;DHT22;16066;0.000;0.000;2023-08-31T10:42:46;19.30;52.40
28959;DHT22;16066;0.000;0.000;2023-08-31T10:45:20;19.30;52.40
28959;DHT22;16066;0.000;0.000;2023-08-31T10:47:46;19.40;52.20
28959;DHT22;16066;0.000;0.000;2023-08-31T10:50:22;19.40;52.10
28959;DHT22;16066;0.000;0.000;2023-08-31T10:52:48;19.40;52.10
28959;DHT22;16066;0.000;0.000;2023-08-31T10:55:14;19.40;52.00
28959;DHT22;16066;0.000;0.000;2023-08-31T10:57:40;19.40;51.80
28959;DHT22;16066;0.000;0.000;2023-08-31T11:00:07;19.40;52.40
28959;DHT22;16066;0.000;0.000;2023-08-31T11:02:46;19.40;52.60
28959;DHT22;16066;0.000;0.000;2023-08-31T11:05:14;19.50;52.60
28959;DHT22;16066;0.000;0.000;2023-08-31T11:07:41;19.50;52.80
28959;DHT22;16066;0.000;0.000;2023-08-31T11:10:14;19.50;53.00
28959;DHT22;16066;0.000;0.000;2023-08-31T11:12:41;19.60;53.10
28959;DHT22;16066;0.000;0.000;2023-08-31T11:15:07;19.60;53.30
28959;DHT22;16066;0.000;0.000;2023-08-31T11:17:33;19.60;53.00
28959;DHT22;16066;0.000;0.000;2023-08-31T11:20:00;19.50;52.90
28959;DHT22;16066;0.000;0.000;2023-08-31T11:22:26;19.60;53.40
28959;DHT22;16066;0.000;0.000;2023-08-31T11:24:51;19.60;53.90
28959;DHT22;16066;0.000;0.000;2023-08-31T11:27:21;19.60;54.50
28959;DHT22;16066;0.000;0.000;2023-08-31T11:29:47;19.60;54.70
28959;DHT22;16066;0.000;0.000;2023-08-31T11:32:12;19.50;55.20
28959;DHT22;16066;0.000;0.000;2023-08-31T11:34:42;19.50;55.60
28959;DHT22;16066;0.000;0.000;2023-08-31T11:37:09;19.50;55.70
28959;DHT22;16066;0.000;0.000;2023-08-31T11:39:37;19.50;55.50
28959;DHT22;16066;0.000;0.000;2023-08-31T11:42:05;19.50;55.40
28959;DHT22;16066;0.000;0.000;2023-08-31T11:44:31;19.50;55.30
28959;DHT22;16066;0.000;0.000;2023-08-31T11:46:56;19.50;55.40
28959;DHT22;16066;0.000;0.000;2023-08-31T11:49:22;19.50;55.40
28959;DHT22;16066;0.000;0.000;2023-08-31T11:51:49;19.50;55.20
28959;DHT22;16066;0.000;0.000;2023-08-31T11:54:17;19.60;55.30
28959;DHT22;16066;0.000;0.000;2023-08-31T11:56:46;19.60;54.90
28959;DHT22;16066;0.000;0.000;2023-08-31T11:59:18;19.70;54.50
28959;DHT22;16066;0.000;0.000;2023-08-31T12:01:46;19.70;53.70
28959;DHT22;16066;0.000;0.000;2023-08-31T12:04:19;19.80;53.20
28959;DHT22;16066;0.000;0.000;2023-08-31T12:06:50;19.90;53.30
28959;DHT22;16066;0.000;0.000;2023-08-31T12:09:17;20.00;53.30
28959;DHT22;16066;0.000;0.000;2023-08-31T12:11:48;20.00;53.00
28959;DHT22;16066;0.000;0.000;2023-08-31T12:14:25;20.10;52.90
28959;DHT22;16066;0.000;0.000;2023-08-31T12:16:52;20.20;52.90
28959;DHT22;16066;0.000;0.000;2023-08-31T12:19:18;20.10;52.50
28959;DHT22;16066;0.000;0.000;2023-08-31T12:21:46;20.20;52.20
28959;DHT22;16066;0.000;0.000;2023-08-31T12:24:12;20.10;52.00
28959;DHT22;16066;0.000;0.000;2023-08-31T12:26:38;20.20;52.00
28959;DHT22;16066;0.000;0.000;2023-08-31T12:29:04;20.10;51.80
28959;DHT22;16066;0.000;0.000;2023-08-31T12:31:30;20.10;51.20
28959;DHT22;16066;0.000;0.000;2023-08-31T12:33:56;20.10;51.40
28959;DHT22;16066;0.000;0.000;2023-08-31T12:36:21;20.10;52.00
28959;DHT22;16066;0.000;0.000;2023-08-31T12:38:47;20.10;52.70
28959;DHT22;16066;0.000;0.000;2023-08-31T12:41:12;20.00;53.20
28959;DHT22;16066;0.000;0.000;2023-08-31T12:43:39;19.90;53.50
28959;DHT22;16066;0.000;0.000;2023-08-31T12:46:04;19.90;53.70
28959;DHT22;16066;0.000;0.000;2023-08-31T12:48:35;19.90;53.90
28959;DHT22;16066;0.000;0.000;2023-08-31T12:51:00;19.90;54.20
28959;DHT22;16066;0.000;0.000;2023-08-31T12:53:26;19.90;54.60
28959;DHT22;16066;0.000;0.000;2023-08-31T12:55:53;20.00;55.10
28959;DHT22;16066;0.000;0.000;2023-08-31T12:58:18;20.10;54.70
28959;DHT22;16066;0.000;0.000;2023-08-31T13:00:45;20.10;54.50
28959;DHT22;16066;0.000;0.000;2023-08-31T13:03:12;20.30;54.30
28959;DHT22;16066;0.000;0.000;2023-08-31T13:05:41;20.30;53.90
28959;DHT22;16066;0.000;0.000;2023-08-31T13:08:08;20.40;54.00
28959;DHT22;16066;0.000;0.000;2023-08-31T13:10:34;20.50;53.60
28959;DHT22;16066;0.000;0.000;2023-08-31T13:12:59;20.60;53.20
28959;DHT22;16066;0.000;0.000;2023-08-31T13:15:25;20.70;53.20
28959;DHT22;16066;0.000;0.000;2023-08-31T13:17:51;20.80;53.10
28959;DHT22;16066;0.000;0.000;2023-08-31T13:20:17;20.90;53.10
28959;DHT22;16066;0.000;0.000;2023-08-31T13:22:42;21.00;53.20
28959;DHT22;16066;0.000;0.000;2023-08-31T13:25:08;21.10;53.20
28959;DHT22;16066;0.000;0.000;2023-08-31T13:27:34;21.20;53.10
28959;DHT22;16066;0.000;0.000;2023-08-31T13:29:59;21.40;53.20
28959;DHT22;16066;0.000;0.000;2023-08-31T13:32:25;21.50;52.90
28959;DHT22;16066;0.000;0.000;2023-08-31T13:34:51;21.60;52.70
28959;DHT22;16066;0.000;0.000;2023-08-31T13:37:19;21.70;52.00
28959;DHT22;16066;0.000;0.000;2023-08-31T13:39:45;21.70;51.50
28959;DHT22;16066;0.000;0.000;2023-08-31T13:42:10;21.70;51.40
28959;DHT22;16066;0.000;0.000;2023-08-31T13:44:36;21.70;51.40
28959;DHT22;16066;0.000;0.000;2023-08-31T13:47:01;21.70;51.20
28959;DHT22;16066;0.000;0.000;2023-08-31T13:49:29;21.60;51.20
28959;DHT22;16066;0.000;0.000;2023-08-31T13:51:55;21.60;51.50
28959;DHT22;16066;0.000;0.000;2023-08-31T13:54:20;21.60;51.30
28959;DHT22;16066;0.000;0.000;2023-08-31T13:56:46;21.60;51.40
28959;DHT22;16066;0.000;0.000;2023-08-31T13:59:11;21.70;51.40
28959;DHT22;16066;0.000;0.000;2023-08-31T14:01:37;21.90;51.40
28959;DHT22;16066;0.000;0.000;2023-08-31T14:04:03;22.40;50.60
28959;DHT22;16066;0.000;0.000;2023-08-31T14:06:29;22.90;49.80
28959;DHT22;16066;0.000;0.000;2023-08-31T14:08:55;23.20;48.50
28959;DHT22;16066;0.000;0.000;2023-08-31T14:11:20;23.30;47.90
28959;DHT22;16066;0.000;0.000;2023-08-31T14:13:46;23.10;47.60
28959;DHT22;16066;0.000;0.000;2023-08-31T14:16:12;22.90;47.60
28959;DHT22;16066;0.000;0.000;2023-08-31T14:18:37;22.90;47.50
28959;DHT22;16066;0.000;0.000;2023-08-31T14:21:03;23.00;47.20
28959;DHT22;16066;0.000;0.000;2023-08-31T14:23:29;22.90;47.20
28959;DHT22;16066;0.000;0.000;2023-08-31T14:26:03;22.60;47.20
28959;DHT22;16066;0.000;0.000;2023-08-31T14:28:29;22.60;47.00
28959;DHT22;16066;0.000;0.000;2023-08-31T14:30:55;22.50;47.30
28959;DHT22;16066;0.000;0.000;2023-08-31T14:33:20;22.70;47.60
28959;DHT22;16066;0.000;0.000;2023-08-31T14:35:45;23.20;46.90
28959;DHT22;16066;0.000;0.000;2023-08-31T14:38:11;23.50;46.10
28959;DHT22;16066;0.000;0.000;2023-08-31T14:40:40;23.50;45.90
28959;DHT22;16066;0.000;0.000;2023-08-31T14:43:07;23.40;45.50
28959;DHT22;16066;0.000;0.000;2023-08-31T14:45:33;23.20;45.80
28959;DHT22;16066;0.000;0.000;2023-08-31T14:47:58;23.10;46.20
28959;DHT22;16066;0.000;0.000;2023-08-31T14:50:24;23.00;46.70
28959;DHT22;16066;0.000;0.000;2023-08-31T14:52:49;22.90;47.30
28959;DHT22;16066;0.000;0.000;2023-08-31T14:55:15;22.70;47.80
28959;DHT22;16066;0.000;0.000;2023-08-31T14:57:40;22.50;48.90
28959;DHT22;16066;0.000;0.000;2023-08-31T15:00:08;22.20;48.50
28959;DHT22;16066;0.000;0.000;2023-08-31T15:02:34;22.10;48.80
28959;DHT22;16066;0.000;0.000;2023-08-31T15:04:59;21.90;48.80
28959;DHT22;16066;0.000;0.000;2023-08-31T15:07:25;21.70;49.10
28959;DHT22;16066;0.000;0.000;2023-08-31T15:09:52;21.60;49.40
28959;DHT22;16066;0.000;0.000;2023-08-31T15:12:17;21.60;49.90
28959;DHT22;16066;0.000;0.000;2023-08-31T15:14:43;21.40;50.20
28959;DHT22;16066;0.000;0.000;2023-08-31T15:17:08;21.40;50.60
28959;DHT22;16066;0.000;0.000;2023-08-31T15:19:34;21.30;51.00
28959;DHT22;16066;0.000;0.000;2023-08-31T15:21:59;21.30;51.20
28959;DHT22;16066;0.000;0.000;2023-08-31T15:24:25;21.20;51.30
28959;DHT22;16066;0.000;0.000;2023-08-31T15:26:51;21.20;51.30
28959;DHT22;16066;0.000;0.000;2023-08-31T15:29:16;21.10;51.20
28959;DHT22;16066;0.000;0.000;2023-08-31T15:31:42;21.10;51.70
28959;DHT22;16066;0.000;0.000;2023-08-31T15:34:11;21.10;51.90
28959;DHT22;16066;0.000;0.000;2023-08-31T15:36:36;21.10;52.20
28959;DHT22;16066;0.000;0.000;2023-08-31T15:39:02;21.00;52.30
28959;DHT22;16066;0.000;0.000;2023-08-31T15:41:28;21.00;52.70
28959;DHT22;16066;0.000;0.000;2023-08-31T15:43:59;21.00;52.90
28959;DHT22;16066;0.000;0.000;2023-08-31T15:46:26;21.00;52.90
28959;DHT22;16066;0.000;0.000;2023-08-31T15:48:51;20.90;52.90
28959;DHT22;16066;0.000;0.000;2023-08-31T15:51:17;20.90;53.20
28959;DHT22;16066;0.000;0.000;2023-08-31T15:53:42;20.90;53.60
28959;DHT22;16066;0.000;0.000;2023-08-31T15:56:08;20.80;53.80
28959;DHT22;16066;0.000;0.000;2023-08-31T15:58:33;20.70;54.00
28959;DHT22;16066;0.000;0.000;2023-08-31T16:00:59;20.60;54.50
28959;DHT22;16066;0.000;0.000;2023-08-31T16:03:32;20.60;54.80
28959;DHT22;16066;0.000;0.000;2023-08-31T16:05:59;20.60;54.70
28959;DHT22;16066;0.000;0.000;2023-08-31T16:08:26;20.70;54.80
28959;DHT22;16066;0.000;0.000;2023-08-31T16:10:52;20.70;54.60
28959;DHT22;16066;0.000;0.000;2023-08-31T16:13:18;20.80;54.40
28959;DHT22;16066;0.000;0.000;2023-08-31T16:15:47;20.90;54.50
28959;DHT22;16066;0.000;0.000;2023-08-31T16:18:13;20.90;54.20
28959;DHT22;16066;0.000;0.000;2023-08-31T16:20:39;20.90;54.30
28959;DHT22;16066;0.000;0.000;2023-08-31T16:23:05;20.90;54.30
28959;DHT22;16066;0.000;0.000;2023-08-31T16:25:30;20.90;54.20
28959;DHT22;16066;0.000;0.000;2023-08-31T16:27:55;20.90;54.30
28959;DHT22;16066;0.000;0.000;2023-08-31T16:30:22;20.90;54.30
28959;DHT22;16066;0.000;0.000;2023-08-31T16:32:47;20.90;54.30
28959;DHT22;16066;0.000;0.000;2023-08-31T16:35:14;20.90;55.00
28959;DHT22;16066;0.000;0.000;2023-08-31T16:37:40;20.80;54.50
28959;DHT22;16066;0.000;0.000;2023-08-31T16:40:11;20.80;54.50
28959;DHT22;16066;0.000;0.000;2023-08-31T16:42:40;20.70;54.50
28959;DHT22;16066;0.000;0.000;2023-08-31T16:45:07;20.70;54.70
28959;DHT22;16066;0.000;0.000;2023-08-31T16:47:34;20.70;55.00
28959;DHT22;16066;0.000;0.000;2023-08-31T16:49:59;20.70;55.20
28959;DHT22;16066;0.000;0.000;2023-08-31T16:52:25;20.60;54.80
28959;DHT22;16066;0.000;0.000;2023-08-31T16:54:52;20.60;54.90
28959;DHT22;16066;0.000;0.000;2023-08-31T16:57:17;20.60;54.70
28959;DHT22;16066;0.000;0.000;2023-08-31T16:59:43;20.60;54.70
28959;DHT22;16066;0.000;0.000;2023-08-31T17:02:09;20.60;54.90
28959;DHT22;16066;0.000;0.000;2023-08-31T17:04:35;20.50;55.00
28959;DHT22;16066;0.000;0.000;2023-08-31T17:07:01;20.60;55.20
28959;DHT22;16066;0.000;0.000;2023-08-31T17:09:28;20.50;55.20
28959;DHT22;16066;0.000;0.000;2023-08-31T17:11:55;20.50;55.30
28959;DHT22;16066;0.000;0.000;2023-08-31T17:14:21;20.50;55.30
28959;DHT22;16066;0.000;0.000;2023-08-31T17:16:47;20.40;55.40
28959;DHT22;16066;0.000;0.000;2023-08-31T17:19:13;20.40;55.50
28959;DHT22;16066;0.000;0.000;2023-08-31T17:21:39;20.40;55.60
28959;DHT22;16066;0.000;0.000;2023-08-31T17:24:06;20.40;55.90
28959;DHT22;16066;0.000;0.000;2023-08-31T17:26:31;20.30;55.60
28959;DHT22;16066;0.000;0.000;2023-08-31T17:28:57;20.30;55.60
28959;DHT22;16066;0.000;0.000;2023-08-31T17:31:23;20.20;55.50
28959;DHT22;16066;0.000;0.000;2023-08-31T17:33:48;20.10;55.60
28959;DHT22;16066;0.000;0.000;2023-08-31T17:36:16;20.10;55.80
28959;DHT22;16066;0.000;0.000;2023-08-31T17:38:45;20.10;56.00
28959;DHT22;16066;0.000;0.000;2023-08-31T17:41:11;20.10;56.20
28959;DHT22;16066;0.000;0.000;2023-08-31T17:43:37;20.20;56.10
28959;DHT22;16066;0.000;0.000;2023-08-31T17:46:02;20.20;56.20
28959;DHT22;16066;0.000;0.000;2023-08-31T17:48:29;20.20;56.50
28959;DHT22;16066;0.000;0.000;2023-08-31T17:50:57;20.10;55.90
28959;DHT22;16066;0.000;0.000;2023-08-31T17:53:23;20.20;56.40
28959;DHT22;16066;0.000;0.000;2023-08-31T17:55:48;20.10;55.90
28959;DHT22;16066;0.000;0.000;2023-08-31T17:58:14;20.20;56.30
28959;DHT22;16066;0.000;0.000;2023-08-31T18:00:39;20.10;56.40
28959;DHT22;16066;0.000;0.000;2023-08-31T18:03:05;20.10;56.60
28959;DHT22;16066;0.000;0.000;2023-08-31T18:05:31;20.10;56.80
28959;DHT22;16066;0.000;0.000;2023-08-31T18:07:56;20.10;56.80
28959;DHT22;16066;0.000;0.000;2023-08-31T18:10:22;20.10;57.00
28959;DHT22;16066;0.000;0.000;2023-08-31T18:12:51;20.10;57.30
28959;DHT22;16066;0.000;0.000;2023-08-31T18:15:16;20.10;57.30
28959;DHT22;16066;0.000;0.000;2023-08-31T18:17:42;20.10;57.20
28959;DHT22;16066;0.000;0.000;2023-08-31T18:20:08;20.10;57.00
28959;DHT22;16066;0.000;0.000;2023-08-31T18:22:34;20.20;57.20
28959;DHT22;16066;0.000;0.000;2023-08-31T18:24:59;20.30;56.90
28959;DHT22;16066;0.000;0.000;2023-08-31T18:27:25;20.30;56.60
28959;DHT22;16066;0.000;0.000;2023-08-31T18:29:51;20.40;56.70
28959;DHT22;16066;0.000;0.000;2023-08-31T18:32:16;20.40;56.60
28959;DHT22;16066;0.000;0.000;2023-08-31T18:34:42;20.50;56.40
28959;DHT22;16066;0.000;0.000;2023-08-31T18:37:09;20.50;56.30
28959;DHT22;16066;0.000;0.000;2023-08-31T18:39:34;20.60;56.20
28959;DHT22;16066;0.000;0.000;2023-08-31T18:42:00;20.70;56.40
28959;DHT22;16066;0.000;0.000;2023-08-31T18:44:27;20.70;56.20
28959;DHT22;16066;0.000;0.000;2023-08-31T18:46:53;20.80;56.30
28959;DHT22;16066;0.000;0.000;2023-08-31T18:49:19;20.80;56.60
28959;DHT22;16066;0.000;0.000;2023-08-31T18:51:44;20.80;56.10
28959;DHT22;16066;0.000;0.000;2023-08-31T18:54:11;20.80;56.00
28959;DHT22;16066;0.000;0.000;2023-08-31T18:56:36;20.90;56.40
28959;DHT22;16066;0.000;0.000;2023-08-31T18:59:04;20.90;56.30
28959;DHT22;16066;0.000;0.000;2023-08-31T19:01:29;20.90;56.10
28959;DHT22;16066;0.000;0.000;2023-08-31T19:03:55;20.90;56.60
28959;DHT22;16066;0.000;0.000;2023-08-31T19:06:25;20.90;56.40
28959;DHT22;16066;0.000;0.000;2023-08-31T19:08:52;20.90;56.40
28959;DHT22;16066;0.000;0.000;2023-08-31T19:11:18;20.90;56.40
28959;DHT22;16066;0.000;0.000;2023-08-31T19:13:43;20.90;56.30
28959;DHT22;16066;0.000;0.000;2023-08-31T19:16:12;21.00;56.40
28959;DHT22;16066;0.000;0.000;2023-08-31T19:18:37;20.90;56.30
28959;DHT22;16066;0.000;0.000;2023-08-31T19:21:05;20.90;56.20
28959;DHT22;16066;0.000;0.000;2023-08-31T19:23:31;20.90;56.20
28959;DHT22;16066;0.000;0.000;2023-08-31T19:26:04;20.90;56.40
28959;DHT22;16066;0.000;0.000;2023-08-31T19:28:33;20.90;56.50
28959;DHT22;16066;0.000;0.000;2023-08-31T19:30:59;20.90;56.40
28959;DHT22;16066;0.000;0.000;2023-08-31T19:33:25;20.90;56.40
28959;DHT22;16066;0.000;0.000;2023-08-31T19:35:51;20.90;56.40
28959;DHT22;16066;0.000;0.000;2023-08-31T19:38:17;20.90;56.30
28959;DHT22;16066;0.000;0.000;2023-08-31T19:40:43;20.90;56.30
28959;DHT22;16066;0.000;0.000;2023-08-31T19:43:09;21.00;56.30
28959;DHT22;16066;0.000;0.000;2023-08-31T19:45:41;21.00;56.40
28959;DHT22;16066;0.000;0.000;2023-08-31T19:48:07;20.90;56.40
28959;DHT22;16066;0.000;0.000;2023-08-31T19:50:34;20.90;56.30
28959;DHT22;16066;0.000;0.000;2023-08-31T19:53:08;20.90;56.30
28959;DHT22;16066;0.000;0.000;2023-08-31T19:55:34;20.90;56.20
28959;DHT22;16066;0.000;0.000;2023-08-31T19:58:00;20.90;56.30
28959;DHT22;16066;0.000;0.000;2023-08-31T20:00:26;20.90;56.40
28959;DHT22;16066;0.000;0.000;2023-08-31T20:02:52;20.90;56.30
28959;DHT22;16066;0.000;0.000;2023-08-31T20:05:18;20.90;56.40
28959;DHT22;16066;0.000;0.000;2023-08-31T20:07:51;20.80;56.30
28959;DHT22;16066;0.000;0.000;2023-08-31T20:10:18;20.80;56.40
28959;DHT22;16066;0.000;0.000;2023-08-31T20:12:44;20.70;56.40
28959;DHT22;16066;0.000;0.000;2023-08-31T20:15:10;20.70;56.70
28959;DHT22;16066;0.000;0.000;2023-08-31T20:17:36;20.70;56.70
28959;DHT22;16066;0.000;0.000;2023-08-31T20:20:04;20.60;57.00
28959;DHT22;16066;0.000;0.000;2023-08-31T20:22:30;20.60;56.80
28959;DHT22;16066;0.000;0.000;2023-08-31T20:24:59;20.60;56.90
28959;DHT22;16066;0.000;0.000;2023-08-31T20:27:25;20.60;57.00
28959;DHT22;16066;0.000;0.000;2023-08-31T20:29:50;20.50;56.90
28959;DHT22;16066;0.000;0.000;2023-08-31T20:32:16;20.50;57.10
28959;DHT22;16066;0.000;0.000;2023-08-31T20:34:46;20.50;57.10
28959;DHT22;16066;0.000;0.000;2023-08-31T20:37:11;20.50;57.20
28959;DHT22;16066;0.000;0.000;2023-08-31T20:39:37;20.50;57.30
28959;DHT22;16066;0.000;0.000;2023-08-31T20:42:05;20.50;57.30
28959;DHT22;16066;0.000;0.000;2023-08-31T20:44:33;20.40;57.30
28959;DHT22;16066;0.000;0.000;2023-08-31T20:46:58;20.40;57.20
28959;DHT22;16066;0.000;0.000;2023-08-31T20:49:24;20.40;57.30
28959;DHT22;16066;0.000;0.000;2023-08-31T20:51:50;20.40;57.30
28959;DHT22;16066;0.000;0.000;2023-08-31T20:54:16;20.30;57.40
28959;DHT22;16066;0.000;0.000;2023-08-31T20:56:41;20.30;57.30
28959;DHT22;16066;0.000;0.000;2023-08-31T20:59:07;20.30;57.50
28959;DHT22;16066;0.000;0.000;2023-08-31T21:01:33;20.30;57.30
28959;DHT22;16066;0.000;0.000;2023-08-31T21:03:59;20.20;57.30
28959;DHT22;16066;0.000;0.000;2023-08-31T21:06:26;20.20;57.60
28959;DHT22;16066;0.000;0.000;2023-08-31T21:08:52;20.20;57.60
28959;DHT22;16066;0.000;0.000;2023-08-31T21:11:22;20.20;57.50